createdAt,value
2019-02-28T00:00:53.603Z,98.90
2019-02-28T00:03:22.336Z,99.40
2019-02-28T00:05:50.978Z,99.70
2019-02-28T00:08:19.597Z,99.70
2019-02-28T00:10:48.172Z,99.80
2019-02-28T00:13:21.478Z,99.90
2019-02-28T00:15:47.107Z,99.90
2019-02-28T00:18:16.703Z,99.90
2019-02-28T00:20:45.415Z,99.90
2019-02-28T00:23:13.981Z,99.90
2019-02-28T00:25:42.716Z,99.90
2019-02-28T00:28:11.328Z,99.90
2019-02-28T00:30:40.729Z,99.90
2019-02-28T00:33:10.113Z,99.90
2019-02-28T00:35:38.808Z,99.90
2019-02-28T00:38:07.539Z,99.90
2019-02-28T00:40:38.490Z,99.90
2019-02-28T00:43:06.559Z,99.90
2019-02-28T00:45:37.181Z,99.90
2019-02-28T00:48:05.624Z,99.90
2019-02-28T00:50:34.312Z,99.90
2019-02-28T00:53:02.901Z,99.90
2019-02-28T00:55:31.452Z,99.90
2019-02-28T00:58:00.076Z,99.90
2019-02-28T01:00:28.800Z,99.90
2019-02-28T01:02:58.086Z,99.90
2019-02-28T01:05:27.114Z,99.90
2019-02-28T01:07:55.808Z,99.90
2019-02-28T01:10:24.740Z,99.90
2019-02-28T01:12:54.556Z,99.90
2019-02-28T01:15:23.268Z,99.90
2019-02-28T01:17:51.825Z,99.90
2019-02-28T01:20:20.409Z,99.90
2019-02-28T01:22:49.032Z,99.90
2019-02-28T01:25:18.525Z,99.90
2019-02-28T01:27:47.166Z,99.90
2019-02-28T01:30:18.516Z,99.90
2019-02-28T01:32:49.915Z,99.90
2019-02-28T01:35:17.375Z,99.90
2019-02-28T01:37:45.956Z,99.90
2019-02-28T01:40:17.836Z,99.90
2019-02-28T01:42:46.421Z,99.90
2019-02-28T01:45:15.117Z,99.90
2019-02-28T01:47:43.771Z,99.90
2019-02-28T01:50:13.764Z,99.90
2019-02-28T01:52:45.919Z,99.90
2019-02-28T01:55:12.768Z,99.90
2019-02-28T01:57:43.872Z,99.90
2019-02-28T02:00:25.854Z,99.90
2019-02-28T02:02:52.686Z,99.90
2019-02-28T02:05:21.407Z,99.90
2019-02-28T02:07:50.027Z,99.90
2019-02-28T02:10:21.793Z,99.90
2019-02-28T02:12:51.931Z,99.90
2019-02-28T02:15:21.027Z,99.90
2019-02-28T02:17:49.610Z,99.90
2019-02-28T02:20:18.407Z,99.90
2019-02-28T02:22:47.325Z,99.90
2019-02-28T02:25:15.948Z,99.90
2019-02-28T02:27:44.533Z,99.90
2019-02-28T02:30:16.308Z,99.90
2019-02-28T02:32:45.161Z,99.90
2019-02-28T02:35:15.206Z,99.90
2019-02-28T02:37:43.805Z,99.90
2019-02-28T02:40:16.486Z,99.90
2019-02-28T02:42:48.394Z,99.90
2019-02-28T02:45:15.749Z,99.90
2019-02-28T02:47:44.497Z,99.90
2019-02-28T02:50:16.434Z,99.90
2019-02-28T02:52:45.061Z,99.90
2019-02-28T02:55:20.122Z,99.90
2019-02-28T02:57:51.886Z,99.90
2019-02-28T03:00:20.966Z,99.90
2019-02-28T03:02:49.610Z,99.90
2019-02-28T03:05:18.167Z,99.90
2019-02-28T03:07:46.751Z,99.90
2019-02-28T03:10:18.268Z,99.90
2019-02-28T03:12:47.282Z,99.90
2019-02-28T03:15:25.448Z,99.90
2019-02-28T03:17:49.780Z,99.90
2019-02-28T03:20:18.504Z,99.90
2019-02-28T03:22:47.126Z,99.90
2019-02-28T03:25:16.754Z,99.90
2019-02-28T03:27:45.392Z,99.90
2019-02-28T03:30:29.014Z,99.90
2019-02-28T03:32:49.155Z,99.90
2019-02-28T03:35:17.877Z,99.90
2019-02-28T03:37:46.497Z,99.90
2019-02-28T03:40:15.628Z,99.90
2019-02-28T03:42:44.322Z,99.90
2019-02-28T03:45:17.490Z,99.90
2019-02-28T03:47:46.184Z,99.90
2019-02-28T03:50:15.098Z,99.90
2019-02-28T03:52:44.716Z,99.90
2019-02-28T03:55:14.539Z,99.90
2019-02-28T03:57:43.212Z,99.90
2019-02-28T04:00:23.423Z,99.90
2019-02-28T04:02:57.042Z,99.90
2019-02-28T04:05:26.418Z,99.90
2019-02-28T04:07:54.586Z,99.90
2019-02-28T04:10:23.071Z,99.90
2019-02-28T04:12:51.659Z,99.90
2019-02-28T04:15:21.246Z,99.90
2019-02-28T04:17:49.857Z,99.90
2019-02-28T04:20:18.580Z,99.90
2019-02-28T04:22:47.215Z,99.90
2019-02-28T04:25:22.951Z,99.90
2019-02-28T04:27:46.077Z,99.90
2019-02-28T04:30:18.304Z,99.90
2019-02-28T04:32:46.883Z,99.90
2019-02-28T04:35:15.602Z,99.90
2019-02-28T04:37:46.506Z,99.90
2019-02-28T04:40:14.440Z,99.90
2019-02-28T04:42:43.030Z,99.90
2019-02-28T04:45:14.205Z,99.90
2019-02-28T04:47:42.784Z,99.90
2019-02-28T04:50:12.796Z,99.90
2019-02-28T04:52:46.731Z,99.90
2019-02-28T04:55:11.941Z,99.90
2019-02-28T04:57:40.574Z,99.90
2019-02-28T05:00:14.892Z,99.90
2019-02-28T05:02:43.516Z,99.90
2019-02-28T05:05:13.321Z,99.90
2019-02-28T05:07:42.548Z,99.90
2019-02-28T05:10:12.093Z,99.90
2019-02-28T05:12:41.100Z,99.90
2019-02-28T05:15:14.639Z,99.90
2019-02-28T05:17:43.301Z,99.90
2019-02-28T05:20:12.435Z,99.90
2019-02-28T05:22:41.078Z,99.90
2019-02-28T05:25:17.617Z,99.90
2019-02-28T05:27:42.705Z,99.90
2019-02-28T05:30:19.316Z,99.90
2019-02-28T05:32:45.940Z,99.90
2019-02-28T05:35:14.604Z,99.90
2019-02-28T05:37:47.001Z,99.90
2019-02-28T05:40:15.045Z,99.90
2019-02-28T05:45:25.588Z,99.90
2019-02-28T05:47:54.219Z,99.90
2019-02-28T05:50:23.002Z,99.90
2019-02-28T05:52:51.604Z,99.90
2019-02-28T05:55:24.607Z,99.90
2019-02-28T05:57:50.544Z,99.90
2019-02-28T06:00:20.810Z,99.90
2019-02-28T06:02:49.477Z,99.90
2019-02-28T06:05:18.176Z,99.90
2019-02-28T06:07:46.773Z,99.90
2019-02-28T06:10:16.195Z,99.90
2019-02-28T06:12:45.048Z,99.90
2019-02-28T06:15:17.584Z,99.90
2019-02-28T06:17:48.957Z,99.90
2019-02-28T06:20:18.058Z,99.90
2019-02-28T06:22:46.952Z,99.90
2019-02-28T06:25:23.605Z,99.90
2019-02-28T06:27:50.468Z,99.90
2019-02-28T06:30:17.746Z,99.90
2019-02-28T06:32:46.389Z,99.90
2019-02-28T06:35:17.775Z,99.90
2019-02-28T06:37:45.310Z,99.90
2019-02-28T06:40:15.080Z,99.90
2019-02-28T06:42:46.641Z,99.90
2019-02-28T06:45:16.279Z,99.90
2019-02-28T06:47:49.519Z,99.90
2019-02-28T06:50:16.852Z,99.90
2019-02-28T06:52:45.526Z,99.90
2019-02-28T06:55:21.903Z,99.90
2019-02-28T06:57:50.491Z,99.90
2019-02-28T07:00:19.181Z,99.90
2019-02-28T07:02:49.977Z,99.90
2019-02-28T07:05:18.214Z,99.90
2019-02-28T07:07:54.152Z,99.90
2019-02-28T07:10:22.137Z,99.90
2019-02-28T07:12:50.943Z,99.90
2019-02-28T07:15:23.777Z,99.90
2019-02-28T07:17:50.144Z,99.90
2019-02-28T07:20:19.930Z,99.90
2019-02-28T07:22:54.488Z,99.90
2019-02-28T07:25:18.972Z,99.90
2019-02-28T07:27:48.476Z,99.90
2019-02-28T07:30:21.411Z,99.90
2019-02-28T07:32:50.182Z,99.90
2019-02-28T07:35:18.805Z,99.90
2019-02-28T07:37:47.393Z,99.90
2019-02-28T07:40:17.750Z,99.90
2019-02-28T07:42:46.839Z,99.90
2019-02-28T07:45:16.577Z,99.90
2019-02-28T07:47:45.434Z,99.10
2019-02-28T07:50:15.517Z,98.20
2019-02-28T07:52:44.139Z,96.80
2019-02-28T07:55:17.848Z,93.20
2019-02-28T07:57:50.942Z,90.50
2019-02-28T08:00:21.928Z,90.20
2019-02-28T08:02:50.616Z,84.60
2019-02-28T08:05:19.844Z,77.30
2019-02-28T08:07:51.805Z,71.20
2019-02-28T08:10:29.870Z,63.00
2019-02-28T08:12:58.568Z,58.30
2019-02-28T08:15:29.681Z,54.90
2019-02-28T08:17:58.483Z,52.00
2019-02-28T08:20:27.222Z,47.80
2019-02-28T08:22:57.694Z,45.60
2019-02-28T08:25:26.139Z,44.30
2019-02-28T08:30:30.653Z,42.70
2019-02-28T08:35:34.059Z,37.60
2019-02-28T08:37:57.846Z,37.60
2019-02-28T08:40:27.948Z,37.50
2019-02-28T08:42:56.656Z,39.70
2019-02-28T08:45:25.235Z,40.80
2019-02-28T08:47:56.667Z,45.00
2019-02-28T08:50:25.417Z,44.50
2019-02-28T08:53:04.802Z,48.70
2019-02-28T08:55:33.465Z,49.10
2019-02-28T08:58:06.183Z,50.80
2019-02-28T11:59:30.783Z,48.00
2019-02-28T12:01:59.381Z,33.40
2019-02-28T12:04:27.947Z,34.10
2019-02-28T12:39:08.068Z,33.70
2019-02-28T12:41:36.702Z,31.10
2019-02-28T12:44:05.400Z,32.40
2019-02-28T12:46:34.061Z,33.10
2019-02-28T12:49:02.703Z,34.60
2019-02-28T12:51:40.286Z,36.00
2019-02-28T12:54:08.842Z,37.00
2019-02-28T12:56:37.579Z,38.60
2019-02-28T12:59:10.016Z,39.40
2019-02-28T13:01:36.530Z,39.70
2019-02-28T13:04:05.225Z,41.30
2019-02-28T13:06:33.825Z,41.70
2019-02-28T13:09:02.529Z,42.50
2019-02-28T13:11:31.130Z,43.30
2019-02-28T13:14:02.453Z,43.60
2019-02-28T13:16:30.365Z,42.40
2019-02-28T14:11:10.169Z,42.10
2019-02-28T14:13:36.200Z,36.60
2019-02-28T14:16:05.149Z,36.80
2019-02-28T14:18:33.785Z,36.90
2019-02-28T14:21:02.941Z,37.50
2019-02-28T14:23:32.714Z,37.80
2019-02-28T14:26:01.399Z,38.20
2019-02-28T14:28:32.418Z,39.30
2019-02-28T14:31:00.276Z,39.40
2019-02-28T14:33:28.865Z,40.10
2019-02-28T14:35:57.766Z,40.20
2019-02-28T14:38:29.477Z,40.70
2019-02-28T14:40:56.568Z,40.50
2019-02-28T14:43:25.229Z,41.10
2019-02-28T14:45:53.929Z,40.50
2019-02-28T14:48:22.513Z,41.20
2019-02-28T14:50:54.169Z,41.90
2019-02-28T14:53:21.385Z,42.30
2019-02-28T14:55:50.173Z,42.80
2019-02-28T14:58:21.275Z,43.50
2019-02-28T15:00:49.121Z,43.60
2019-02-28T15:03:17.867Z,44.30
2019-02-28T15:05:47.739Z,44.50
2019-02-28T15:08:16.709Z,45.30
2019-02-28T15:10:45.911Z,45.20
2019-02-28T15:13:14.980Z,45.90
2019-02-28T15:15:43.805Z,45.90
2019-02-28T15:18:14.654Z,47.10
2019-02-28T15:20:42.809Z,47.80
2019-02-28T15:23:11.640Z,48.20
2019-02-28T15:25:40.400Z,48.90
2019-02-28T15:28:10.705Z,49.80
2019-02-28T15:30:42.879Z,50.40
2019-02-28T15:33:11.642Z,51.60
2019-02-28T15:35:40.351Z,51.90
2019-02-28T15:38:10.396Z,52.60
2019-02-28T15:40:46.777Z,53.20
2019-02-28T15:43:18.275Z,54.20
2019-02-28T15:45:46.003Z,54.90
2019-02-28T15:48:14.773Z,55.50
2019-02-28T15:50:44.127Z,56.20
2019-02-28T15:53:15.195Z,57.10
2019-02-28T15:55:43.536Z,58.20
2019-02-28T15:58:13.046Z,58.40
2019-02-28T16:00:41.736Z,58.90
2019-02-28T16:03:10.328Z,59.20
2019-02-28T16:05:44.050Z,59.90
2019-02-28T16:08:10.804Z,60.30
2019-02-28T16:10:39.647Z,61.70
2019-02-28T16:13:08.361Z,62.30
2019-02-28T16:15:37.098Z,63.90
2019-02-28T16:18:11.935Z,65.40
2019-02-28T16:20:41.422Z,67.50
2019-02-28T16:23:10.182Z,68.50
2019-02-28T16:25:39.710Z,69.30
2019-02-28T16:28:09.165Z,70.60
2019-02-28T16:30:39.585Z,72.20
2019-02-28T16:33:08.295Z,73.70
2019-02-28T16:35:36.870Z,73.90
2019-02-28T16:38:06.443Z,73.80
2019-02-28T16:40:35.997Z,74.70
2019-02-28T16:43:04.737Z,74.60
2019-02-28T16:45:37.481Z,74.90
2019-02-28T16:48:07.584Z,75.70
2019-02-28T16:50:37.230Z,75.30
2019-02-28T16:53:06.517Z,75.50
2019-02-28T16:55:35.746Z,76.10
2019-02-28T16:58:04.988Z,76.00
2019-02-28T17:00:34.140Z,77.30
2019-02-28T17:03:04.092Z,77.50
2019-02-28T17:05:33.761Z,77.40
2019-02-28T17:08:03.161Z,78.40
2019-02-28T17:10:35.074Z,78.70
2019-02-28T17:13:20.434Z,79.20
2019-02-28T17:16:02.928Z,79.30
2019-02-28T17:18:37.048Z,79.60
2019-02-28T17:21:06.692Z,79.60
2019-02-28T17:23:37.001Z,79.80
2019-02-28T17:26:06.283Z,80.10
2019-02-28T17:28:36.672Z,80.50
2019-02-28T17:31:18.927Z,81.10
2019-02-28T17:33:47.968Z,81.20
2019-02-28T17:36:16.794Z,81.90
2019-02-28T17:38:45.457Z,82.20
2019-02-28T17:41:14.119Z,82.40
2019-02-28T17:43:46.168Z,82.60
2019-02-28T17:46:16.918Z,84.00
2019-02-28T17:48:52.390Z,83.50
2019-02-28T17:51:25.166Z,83.00
2019-02-28T17:54:02.041Z,82.80
2019-02-28T17:56:44.582Z,81.80
2019-02-28T17:59:21.956Z,81.70
2019-02-28T18:02:26.959Z,81.40
2019-02-28T18:05:29.854Z,81.80
2019-02-28T18:08:13.937Z,81.50
2019-02-28T18:11:08.156Z,80.60
2019-02-28T18:14:00.109Z,80.20
2019-02-28T18:16:40.574Z,80.20
2019-02-28T18:19:33.228Z,80.70
2019-02-28T18:22:09.288Z,81.90
2019-02-28T18:25:17.326Z,83.00
2019-02-28T18:28:03.186Z,83.60
2019-02-28T18:30:42.718Z,86.00
2019-02-28T18:33:11.455Z,87.10
2019-02-28T18:35:40.221Z,88.20
2019-02-28T18:38:08.784Z,89.40
2019-02-28T18:43:05.824Z,90.20
2019-02-28T18:45:34.562Z,91.00
2019-02-28T18:48:04.662Z,91.10
2019-02-28T18:50:34.135Z,91.20
2019-02-28T18:53:05.380Z,91.50
2019-02-28T18:55:36.994Z,91.60
2019-02-28T19:03:53.041Z,92.20
2019-02-28T19:06:26.529Z,92.50
2019-02-28T19:08:55.250Z,92.50
2019-02-28T19:11:26.336Z,92.20
2019-02-28T19:13:55.132Z,92.00
2019-02-28T19:16:24.073Z,91.60
2019-02-28T19:18:52.707Z,91.40
2019-02-28T19:21:21.318Z,91.00
2019-02-28T19:23:50.616Z,90.80
2019-02-28T19:26:20.194Z,90.70
2019-02-28T19:28:49.082Z,90.40
2019-02-28T19:31:19.796Z,90.40
2019-02-28T19:33:49.246Z,90.20
2019-02-28T19:36:18.933Z,90.00
2019-02-28T19:38:47.698Z,90.00
2019-02-28T19:41:16.329Z,90.20
2019-02-28T19:43:44.930Z,90.10
2019-02-28T19:46:13.489Z,90.00
2019-02-28T19:48:42.277Z,90.20
2019-02-28T19:51:11.029Z,90.20
2019-02-28T19:53:39.615Z,90.20
2019-02-28T19:56:08.177Z,90.30
2019-02-28T19:58:36.803Z,90.40
2019-02-28T20:01:05.542Z,90.50
2019-02-28T20:03:34.195Z,90.60
2019-02-28T20:06:02.861Z,90.60
2019-02-28T20:08:31.672Z,90.80
2019-02-28T20:11:00.530Z,90.90
2019-02-28T20:13:29.210Z,90.90
2019-02-28T20:15:57.965Z,91.00
2019-02-28T20:18:26.670Z,91.10
2019-02-28T20:20:55.391Z,91.50
2019-02-28T20:23:24.981Z,91.70
2019-02-28T20:25:54.005Z,92.00
2019-02-28T20:28:22.631Z,92.20
2019-02-28T20:30:51.419Z,92.40
2019-02-28T20:33:20.125Z,92.80
2019-02-28T20:35:48.765Z,93.00
2019-02-28T20:38:17.566Z,93.40
2019-02-28T20:40:46.185Z,93.50
2019-02-28T20:43:14.970Z,93.70
2019-02-28T20:45:43.996Z,94.10
2019-02-28T20:48:13.079Z,94.20
2019-02-28T20:50:43.829Z,94.20
2019-02-28T20:53:12.537Z,94.10
2019-02-28T20:55:41.136Z,94.00
2019-02-28T20:58:10.247Z,94.00
2019-02-28T21:00:39.056Z,94.00
2019-02-28T21:03:07.753Z,93.90
2019-02-28T21:05:36.605Z,93.90
2019-02-28T21:08:05.334Z,93.90
2019-02-28T21:10:34.334Z,93.90
2019-02-28T21:13:03.114Z,93.90
2019-02-28T21:15:32.316Z,93.90
2019-02-28T21:18:01.082Z,94.00
2019-02-28T21:20:29.831Z,94.10
2019-02-28T21:22:58.736Z,94.30
2019-02-28T21:25:27.776Z,94.30
2019-02-28T21:27:57.338Z,94.40
2019-02-28T21:30:27.668Z,94.60
2019-02-28T21:32:56.728Z,94.90
2019-02-28T21:35:26.149Z,95.00
2019-02-28T21:37:54.974Z,95.30
2019-02-28T21:40:24.101Z,95.20
2019-02-28T21:42:53.739Z,95.30
2019-02-28T21:45:25.390Z,95.30
2019-02-28T21:47:54.513Z,95.20
2019-02-28T21:50:25.217Z,95.10
2019-02-28T21:52:54.622Z,95.10
2019-02-28T21:55:23.688Z,95.00
2019-02-28T21:57:52.544Z,95.00
2019-02-28T22:00:34.860Z,95.20
2019-02-28T22:03:03.639Z,95.00
2019-02-28T22:05:32.412Z,95.00
2019-02-28T22:08:01.097Z,95.10
2019-02-28T22:10:29.740Z,95.00
2019-02-28T22:12:59.814Z,95.00
2019-02-28T22:15:28.858Z,95.10
2019-02-28T22:17:57.614Z,95.10
2019-02-28T22:20:26.467Z,95.00
2019-02-28T22:22:55.281Z,95.00
2019-02-28T22:25:24.055Z,95.00
2019-02-28T22:27:52.905Z,95.00
2019-02-28T22:30:41.877Z,95.00
2019-02-28T22:33:28.319Z,95.00
2019-02-28T22:36:10.662Z,95.20
2019-02-28T22:38:39.323Z,95.30
2019-02-28T22:41:08.002Z,95.40
2019-02-28T22:43:36.731Z,95.30
2019-02-28T22:46:05.580Z,95.40
2019-02-28T22:48:35.188Z,95.40
2019-02-28T22:51:03.973Z,95.50
2019-02-28T22:53:32.814Z,95.70
2019-02-28T22:56:01.704Z,96.00
2019-02-28T22:58:30.500Z,95.90
2019-02-28T23:01:03.824Z,95.90
2019-02-28T23:03:34.324Z,96.00
2019-02-28T23:06:03.120Z,96.00
2019-02-28T23:08:31.905Z,96.30
2019-02-28T23:11:00.802Z,96.30
2019-02-28T23:13:29.556Z,96.30
2019-02-28T23:15:58.385Z,96.30
2019-02-28T23:18:27.239Z,96.30
2019-02-28T23:20:56.102Z,96.50
2019-02-28T23:23:24.872Z,96.50
2019-02-28T23:25:53.759Z,96.50
2019-02-28T23:28:27.894Z,96.60
2019-02-28T23:31:14.454Z,96.70
2019-02-28T23:33:43.214Z,96.60
2019-02-28T23:36:12.014Z,96.70
2019-02-28T23:38:40.789Z,96.90
2019-02-28T23:41:09.545Z,96.90
2019-02-28T23:43:38.306Z,97.30
2019-02-28T23:46:07.068Z,98.40
2019-02-28T23:48:35.671Z,99.10
2019-02-28T23:51:04.405Z,99.90
2019-02-28T23:53:33.201Z,99.90
2019-02-28T23:56:02.017Z,99.90
2019-02-28T23:58:30.769Z,99.90
